Time;durP1;ratioP1;P1;durP2;ratioP2;P2;SDS_P1;SDS_P2;PMS_P1;PMS_P2;Temp;Humidity;BMP_temperature;BMP_pressure;BME280_temperature;BME280_humidity;BME280_pressure;Samples;Min_cycle;Max_cycle;Signal;HPM_P1;HPM_P2
2022/01/03 00:01:24;;;;;;;;;;;;;;;2.90;100.00;100368.66;5599881;31;33702;-85
2022/01/03 00:04:26;;;;;;;;;;;;;;;3.24;100.00;100351.81;5600536;31;33906;-85
2022/01/03 00:07:36;;;;;;;;;;;;;;;3.32;100.00;100343.47;5600093;31;34117;-85
2022/01/03 00:10:41;;;;;;;;;;;;;;;3.34;100.00;100333.75;5601163;31;34022;-85
2022/01/03 00:13:44;;;;;;;;;;;;;;;3.21;100.00;100340.66;5601417;31;34464;-85
2022/01/03 00:16:47;;;;;;;;;;;;;;;3.10;100.00;100333.50;5600845;31;34527;-85
2022/01/03 00:19:49;;;;;;;;;;;;;;;3.05;100.00;100325.94;5600739;31;34000;-85
2022/01/03 00:22:57;;;;;;;;;;;;;;;2.96;100.00;100331.72;5601567;31;35189;-85
2022/01/03 00:26:01;;;;;;;;;;;;;;;2.84;100.00;100328.03;5601619;31;33752;-85
2022/01/03 00:29:10;;;;;;;;;;;;;;;2.81;100.00;100327.38;5601771;31;34142;-84
2022/01/03 00:32:13;;;;;;;;;;;;;;;2.82;100.00;100329.06;5600117;31;34424;-84
2022/01/03 00:35:16;;;;;;;;;;;;;;;2.71;100.00;100330.53;5599988;31;33588;-84
2022/01/03 00:38:18;;;;;;;;;;;;;;;2.63;100.00;100319.72;5599640;31;34704;-84
2022/01/03 00:41:22;;;;;;;;;;;;;;;2.56;100.00;100313.12;5601003;31;33837;-84
2022/01/03 00:44:25;;;;;;;;;;;;;;;2.48;100.00;100310.97;5600120;31;34640;-85
2022/01/03 00:47:31;;;;;;;;;;;;;;;2.50;100.00;100303.06;5599183;31;34401;-85
2022/01/03 00:50:41;;;;;;;;;;;;;;;2.49;100.00;100306.59;5599949;31;34955;-85
2022/01/03 00:53:43;;;;;;;;;;;;;;;2.39;100.00;100306.28;5600196;31;33925;-84
2022/01/03 00:56:47;;;;;;;;;;;;;;;2.35;100.00;100304.78;5600177;31;33439;-84
2022/01/03 00:59:58;;;;;;;;;;;;;;;2.41;100.00;100305.28;5586397;31;33767;-84
2022/01/03 01:03:09;;;;;;;;;;;;;;;2.30;100.00;100303.28;5599142;31;34095;-84
2022/01/03 01:06:13;;;;;;;;;;;;;;;2.28;100.00;100304.31;5600007;31;33803;-84
2022/01/03 01:09:17;;;;;;;;;;;;;;;2.23;100.00;100316.75;5600688;31;34898;-84
2022/01/03 01:12:21;;;;;;;;;;;;;;;2.18;100.00;100318.81;5601166;31;33339;-84
2022/01/03 01:15:26;;;;;;;;;;;;;;;2.09;100.00;100310.53;5575054;31;804129;-84
2022/01/03 01:18:31;;;;;;;;;;;;;;;1.96;100.00;100310.41;5599288;31;33488;-84
2022/01/03 01:21:34;;;;;;;;;;;;;;;1.88;100.00;100301.31;5598258;31;32142;-84
2022/01/03 01:24:48;;;;;;;;;;;;;;;1.86;100.00;100327.50;5600040;31;34904;-84
2022/01/03 01:27:53;;;;;;;;;;;;;;;1.84;100.00;100317.16;5599230;31;33538;-84
2022/01/03 01:30:59;;;;;;;;;;;;;;;1.81;100.00;100313.84;5599831;31;33900;-84
2022/01/03 01:34:05;;;;;;;;;;;;;;;1.79;100.00;100315.72;5599560;31;33921;-84
2022/01/03 01:37:11;;;;;;;;;;;;;;;1.85;100.00;100299.72;5600452;31;34501;-84
2022/01/03 01:40:14;;;;;;;;;;;;;;;1.78;100.00;100285.34;5600832;31;33454;-84
2022/01/03 01:43:18;;;;;;;;;;;;;;;1.85;100.00;100287.53;5601007;31;33649;-84
2022/01/03 01:46:21;;;;;;;;;;;;;;;1.80;100.00;100288.72;5598817;31;34209;-85
2022/01/03 01:49:26;;;;;;;;;;;;;;;1.74;100.00;100287.28;5600030;31;34850;-84
2022/01/03 01:52:33;;;;;;;;;;;;;;;1.65;100.00;100286.03;5599900;31;34637;-84
2022/01/03 01:55:39;;;;;;;;;;;;;;;1.58;100.00;100283.81;5598818;31;33612;-84
2022/01/03 01:58:58;;;;;;;;;;;;;;;1.50;100.00;100290.31;5598083;31;34056;-84
2022/01/03 02:02:06;;;;;;;;;;;;;;;1.45;100.00;100279.28;5599217;31;34464;-84
2022/01/03 02:05:18;;;;;;;;;;;;;;;1.47;100.00;100276.56;5599227;31;34337;-85
2022/01/03 02:08:26;;;;;;;;;;;;;;;1.46;100.00;100273.16;5599062;31;35168;-84
2022/01/03 02:11:42;;;;;;;;;;;;;;;1.49;100.00;100291.25;5598727;31;33811;-84
2022/01/03 02:14:44;;;;;;;;;;;;;;;1.53;100.00;100277.09;5598530;31;34607;-84
2022/01/03 02:17:48;;;;;;;;;;;;;;;1.52;100.00;100275.41;5597901;31;33645;-84
2022/01/03 02:20:54;;;;;;;;;;;;;;;1.60;100.00;100282.81;5599216;31;33947;-84
2022/01/03 02:23:56;;;;;;;;;;;;;;;1.70;100.00;100283.16;5599691;31;34129;-84
2022/01/03 02:27:00;;;;;;;;;;;;;;;1.67;100.00;100288.53;5599351;31;34119;-85
2022/01/03 02:30:08;;;;;;;;;;;;;;;1.68;100.00;100295.44;5598991;31;34387;-85
2022/01/03 02:33:12;;;;;;;;;;;;;;;1.66;100.00;100298.13;5599563;31;34314;-85
2022/01/03 02:36:19;;;;;;;;;;;;;;;1.66;100.00;100281.63;5599794;31;34894;-85
2022/01/03 02:39:22;;;;;;;;;;;;;;;1.80;100.00;100284.31;5599100;31;34100;-85
2022/01/03 02:42:25;;;;;;;;;;;;;;;1.83;100.00;100276.34;5586434;31;34479;-85
2022/01/03 02:45:28;;;;;;;;;;;;;;;1.92;100.00;100261.09;5600129;31;33971;-85
2022/01/03 02:48:32;;;;;;;;;;;;;;;1.96;100.00;100275.66;5602596;31;33790;-86
2022/01/03 02:51:34;;;;;;;;;;;;;;;1.99;100.00;100281.53;5601545;31;34020;-85
2022/01/03 02:54:40;;;;;;;;;;;;;;;1.96;100.00;100278.25;5601893;31;34113;-84
2022/01/03 02:57:44;;;;;;;;;;;;;;;1.89;100.00;100295.16;5599100;31;33953;-84
2022/01/03 03:00:48;;;;;;;;;;;;;;;1.79;100.00;100300.91;5596938;31;33822;-84
2022/01/03 03:03:56;;;;;;;;;;;;;;;1.71;100.00;100305.72;5596211;31;34922;-84
2022/01/03 03:06:58;;;;;;;;;;;;;;;1.65;100.00;100295.59;5596251;31;34151;-84
2022/01/03 03:10:04;;;;;;;;;;;;;;;1.63;100.00;100292.25;5595735;31;33725;-84
2022/01/03 03:13:10;;;;;;;;;;;;;;;1.66;100.00;100279.03;5595757;31;33869;-84
2022/01/03 03:16:12;;;;;;;;;;;;;;;1.63;100.00;100271.41;5597068;31;34096;-84
2022/01/03 03:19:18;;;;;;;;;;;;;;;1.61;100.00;100268.03;5595771;31;33845;-84
2022/01/03 03:22:25;;;;;;;;;;;;;;;1.57;100.00;100263.87;5598052;31;34062;-84
2022/01/03 03:25:29;;;;;;;;;;;;;;;1.58;100.00;100258.56;5598825;31;34119;-84
2022/01/03 03:28:32;;;;;;;;;;;;;;;1.54;100.00;100263.13;5597429;31;34103;-85
2022/01/03 03:31:35;;;;;;;;;;;;;;;1.63;100.00;100261.78;5600180;31;33625;-84
2022/01/03 03:34:38;;;;;;;;;;;;;;;1.48;100.00;100257.41;5600042;31;33556;-84
2022/01/03 03:37:41;;;;;;;;;;;;;;;1.54;100.00;100247.47;5599301;31;33765;-84
2022/01/03 03:40:47;;;;;;;;;;;;;;;1.48;100.00;100241.75;5598596;31;35114;-84
2022/01/03 03:43:53;;;;;;;;;;;;;;;1.51;100.00;100232.03;5599896;31;33993;-84
2022/01/03 03:46:56;;;;;;;;;;;;;;;1.51;100.00;100237.25;5599888;31;33696;-84
2022/01/03 03:50:01;;;;;;;;;;;;;;;1.54;100.00;100252.69;5600235;31;34190;-84
2022/01/03 03:53:04;;;;;;;;;;;;;;;1.53;100.00;100256.22;5600138;31;33897;-85
2022/01/03 03:56:06;;;;;;;;;;;;;;;1.47;100.00;100240.94;5599673;31;33630;-84
2022/01/03 03:59:12;;;;;;;;;;;;;;;1.49;100.00;100249.53;5601370;31;33950;-84
2022/01/03 04:02:14;;;;;;;;;;;;;;;1.59;100.00;100247.22;5601389;31;33818;-85
2022/01/03 04:05:18;;;;;;;;;;;;;;;1.58;100.00;100252.53;5601439;31;34520;-84
2022/01/03 04:08:21;;;;;;;;;;;;;;;1.64;100.00;100246.97;5600844;31;34668;-85
2022/01/03 04:11:25;;;;;;;;;;;;;;;1.66;100.00;100245.13;5600249;31;33916;-85
2022/01/03 04:14:28;;;;;;;;;;;;;;;1.77;100.00;100242.75;5600041;31;34545;-85
2022/01/03 04:17:31;;;;;;;;;;;;;;;1.75;100.00;100234.16;5599933;31;34135;-86
2022/01/03 04:20:34;;;;;;;;;;;;;;;1.83;100.00;100241.56;5600313;31;35561;-84
2022/01/03 04:23:37;;;;;;;;;;;;;;;1.89;100.00;100237.78;5600938;31;34259;-85
2022/01/03 04:26:40;;;;;;;;;;;;;;;1.95;100.00;100240.06;5601076;31;34380;-85
2022/01/03 04:29:45;;;;;;;;;;;;;;;2.10;100.00;100244.37;5601088;31;34884;-86
2022/01/03 04:32:50;;;;;;;;;;;;;;;2.25;100.00;100252.25;5600433;31;34154;-85
2022/01/03 04:35:54;;;;;;;;;;;;;;;2.34;100.00;100250.87;5600828;31;35113;-85
2022/01/03 04:38:56;;;;;;;;;;;;;;;2.54;100.00;100242.72;5601579;31;34452;-85
2022/01/03 04:42:00;;;;;;;;;;;;;;;2.55;100.00;100259.22;5600375;31;34284;-85
2022/01/03 04:45:05;;;;;;;;;;;;;;;2.55;100.00;100244.41;5600735;31;34023;-85
2022/01/03 04:48:08;;;;;;;;;;;;;;;2.57;100.00;100231.25;5600490;31;33763;-85
2022/01/03 04:51:11;;;;;;;;;;;;;;;2.68;100.00;100228.00;5601109;31;34287;-85
2022/01/03 04:54:14;;;;;;;;;;;;;;;2.76;100.00;100223.97;5600143;31;33553;-85
2022/01/03 04:57:16;;;;;;;;;;;;;;;2.87;100.00;100227.75;5602879;31;33818;-85
2022/01/03 05:00:21;;;;;;;;;;;;;;;2.91;100.00;100231.81;5605794;31;34352;-84
2022/01/03 05:03:24;;;;;;;;;;;;;;;2.98;100.00;100241.00;5605947;31;34946;-84
2022/01/03 05:06:27;;;;;;;;;;;;;;;3.01;100.00;100226.87;5605728;31;33662;-84
2022/01/03 05:09:30;;;;;;;;;;;;;;;3.04;100.00;100230.16;5605591;31;33759;-84
2022/01/03 05:12:33;;;;;;;;;;;;;;;3.07;100.00;100232.56;5604007;31;34438;-84
2022/01/03 05:15:36;;;;;;;;;;;;;;;3.12;100.00;100226.22;5603727;31;34117;-84
2022/01/03 05:18:39;;;;;;;;;;;;;;;3.20;100.00;100210.91;5604748;31;33842;-85
2022/01/03 05:21:41;;;;;;;;;;;;;;;3.29;100.00;100207.69;5601337;31;34901;-84
2022/01/03 05:24:44;;;;;;;;;;;;;;;3.29;100.00;100197.25;5601043;31;33842;-85
2022/01/03 05:27:47;;;;;;;;;;;;;;;3.25;100.00;100208.81;5599559;31;33691;-84
2022/01/03 05:30:52;;;;;;;;;;;;;;;3.22;100.00;100195.94;5599082;31;33812;-86
2022/01/03 05:33:55;;;;;;;;;;;;;;;3.44;100.00;100173.66;5600750;31;33059;-86
2022/01/03 05:36:58;;;;;;;;;;;;;;;3.51;100.00;100181.00;5601686;31;35034;-86
2022/01/03 05:40:01;;;;;;;;;;;;;;;3.47;100.00;100187.41;5603388;31;33992;-86
2022/01/03 05:43:04;;;;;;;;;;;;;;;3.47;100.00;100189.16;5603851;31;34785;-88
2022/01/03 05:46:07;;;;;;;;;;;;;;;3.46;100.00;100185.72;5602817;31;34589;-87
2022/01/03 05:49:11;;;;;;;;;;;;;;;3.39;100.00;100187.88;5604388;31;34721;-87
2022/01/03 05:52:14;;;;;;;;;;;;;;;3.43;100.00;100182.47;5602504;31;34587;-87
2022/01/03 05:55:19;;;;;;;;;;;;;;;3.52;100.00;100187.09;5601405;31;34073;-88
2022/01/03 05:58:22;;;;;;;;;;;;;;;3.61;100.00;100168.19;5602365;31;33533;-88
2022/01/03 06:01:25;;;;;;;;;;;;;;;3.66;100.00;100175.72;5602270;31;33465;-86
2022/01/03 06:04:56;;;;;;;;;;;;;;;3.74;100.00;100190.94;5601827;31;34062;-87
2022/01/03 06:07:58;;;;;;;;;;;;;;;3.82;100.00;100183.41;5602014;31;33994;-87
2022/01/03 06:11:03;;;;;;;;;;;;;;;4.01;100.00;100191.72;5603672;31;34187;-87
2022/01/03 06:14:06;;;;;;;;;;;;;;;4.05;100.00;100197.63;5602511;31;33925;-87
2022/01/03 06:17:09;;;;;;;;;;;;;;;4.07;100.00;100203.56;5603066;31;34433;-87
2022/01/03 06:20:12;;;;;;;;;;;;;;;4.08;100.00;100197.41;5601492;31;33655;-88
2022/01/03 06:23:16;;;;;;;;;;;;;;;4.08;100.00;100204.44;5602225;31;34076;-87
2022/01/03 06:26:21;;;;;;;;;;;;;;;4.09;100.00;100200.88;5602279;31;33590;-88
2022/01/03 06:29:26;;;;;;;;;;;;;;;4.12;100.00;100198.88;5602330;31;34474;-85
2022/01/03 06:32:29;;;;;;;;;;;;;;;4.23;100.00;100202.56;5604139;31;34990;-84
2022/01/03 06:35:32;;;;;;;;;;;;;;;4.58;100.00;100192.31;5599594;31;34931;-84
2022/01/03 06:38:34;;;;;;;;;;;;;;;4.93;100.00;100199.50;5594758;31;33486;-83
2022/01/03 06:41:40;;;;;;;;;;;;;;;5.37;100.00;100214.81;5595268;31;34439;-83
2022/01/03 06:44:46;;;;;;;;;;;;;;;5.79;100.00;100210.06;5596288;31;33587;-85
2022/01/03 06:47:52;;;;;;;;;;;;;;;6.00;100.00;100212.91;5581130;31;34193;-85
2022/01/03 06:50:54;;;;;;;;;;;;;;;6.12;100.00;100241.84;5595391;31;33868;-85
2022/01/03 06:53:58;;;;;;;;;;;;;;;6.22;100.00;100239.38;5596429;31;33835;-85
2022/01/03 06:57:04;;;;;;;;;;;;;;;6.59;100.00;100233.94;5595173;31;33809;-85
2022/01/03 07:00:09;;;;;;;;;;;;;;;7.34;100.00;100240.44;5595614;31;33167;-85
2022/01/03 07:03:27;;;;;;;;;;;;;;;7.75;99.87;100242.50;5594704;31;34826;-85
2022/01/03 07:06:31;;;;;;;;;;;;;;;8.00;99.00;100241.31;5597046;31;33903;-86
2022/01/03 07:09:34;;;;;;;;;;;;;;;7.88;98.68;100248.44;5598252;31;34365;-86
2022/01/03 07:12:37;;;;;;;;;;;;;;;7.91;98.67;100215.72;5597172;31;33802;-85
2022/01/03 07:19:12;;;;;;;;;;;;;;;7.98;98.12;100240.63;5598018;31;34560;-85
2022/01/03 07:22:14;;;;;;;;;;;;;;;7.94;98.00;100247.94;5598044;31;33641;-85
2022/01/03 07:25:17;;;;;;;;;;;;;;;8.37;94.14;100237.44;5597763;31;33953;-85
2022/01/03 07:28:19;;;;;;;;;;;;;;;8.72;90.68;100231.03;5597549;31;33695;-85
2022/01/03 07:31:22;;;;;;;;;;;;;;;8.94;90.28;100220.31;5597399;31;34085;-85
2022/01/03 07:34:24;;;;;;;;;;;;;;;8.91;89.75;100225.84;5597727;31;34186;-83
2022/01/03 07:37:27;;;;;;;;;;;;;;;9.01;88.22;100236.41;5598525;31;33990;-83
2022/01/03 07:40:30;;;;;;;;;;;;;;;9.69;82.72;100240.22;5598880;31;33782;-87
2022/01/03 07:43:35;;;;;;;;;;;;;;;10.02;81.47;100219.66;5599457;31;33659;-85
2022/01/03 07:46:37;;;;;;;;;;;;;;;10.58;76.96;100219.91;5589526;31;33629;-85
2022/01/03 07:49:40;;;;;;;;;;;;;;;10.83;75.45;100207.81;5599456;31;34121;-85
2022/01/03 07:52:43;;;;;;;;;;;;;;;10.92;73.84;100219.38;5598503;31;33768;-85
2022/01/03 07:55:45;;;;;;;;;;;;;;;10.90;74.37;100219.53;5597934;31;34062;-83
2022/01/03 07:58:49;;;;;;;;;;;;;;;10.99;73.36;100212.50;5598138;31;33587;-83
2022/01/03 08:01:53;;;;;;;;;;;;;;;10.88;74.78;100225.91;5597979;31;33983;-83
2022/01/03 08:04:56;;;;;;;;;;;;;;;10.72;75.35;100211.50;5598998;31;33728;-83
2022/01/03 08:08:03;;;;;;;;;;;;;;;10.73;75.82;100229.06;5598560;31;34330;-83
2022/01/03 08:11:07;;;;;;;;;;;;;;;10.72;75.35;100203.56;5598453;31;34838;-84
2022/01/03 08:14:10;;;;;;;;;;;;;;;11.07;72.43;100207.31;5599521;31;34711;-84
2022/01/03 08:17:14;;;;;;;;;;;;;;;11.19;72.17;100236.25;5596542;31;33297;-87
2022/01/03 08:20:16;;;;;;;;;;;;;;;11.18;72.97;100222.16;5598542;31;33640;-85
2022/01/03 08:23:19;;;;;;;;;;;;;;;11.40;70.54;100220.94;5600808;31;33704;-83
2022/01/03 08:26:21;;;;;;;;;;;;;;;11.71;67.65;100217.94;5598619;31;33413;-82
2022/01/03 08:29:24;;;;;;;;;;;;;;;11.92;67.60;100213.34;5599740;31;33761;-83
2022/01/03 08:32:31;;;;;;;;;;;;;;;12.05;65.60;100187.28;5599229;31;34531;-85
2022/01/03 08:35:34;;;;;;;;;;;;;;;12.09;65.63;100214.34;5600660;31;33862;-84
2022/01/03 08:38:36;;;;;;;;;;;;;;;12.01;66.66;100213.28;5599713;31;33899;-82
2022/01/03 08:41:39;;;;;;;;;;;;;;;12.15;64.91;100195.16;5599664;31;34468;-82
2022/01/03 08:44:41;;;;;;;;;;;;;;;12.13;65.48;100227.13;5600382;31;33326;-83
2022/01/03 08:47:44;;;;;;;;;;;;;;;12.18;64.88;100198.31;5600122;31;34102;-83
2022/01/03 08:50:46;;;;;;;;;;;;;;;12.17;65.60;100235.62;5600213;31;33957;-84
2022/01/03 08:53:50;;;;;;;;;;;;;;;12.04;66.81;100220.94;5598031;31;33905;-83
2022/01/03 08:56:53;;;;;;;;;;;;;;;12.00;66.69;100238.13;5599240;31;33674;-83
2022/01/03 08:59:55;;;;;;;;;;;;;;;11.98;67.45;100245.41;5598784;31;33553;-84
2022/01/03 09:02:57;;;;;;;;;;;;;;;12.04;65.45;100218.28;5600869;31;34920;-83
2022/01/03 09:06:05;;;;;;;;;;;;;;;11.84;66.08;100230.00;5598499;31;33821;-81
2022/01/03 09:09:07;;;;;;;;;;;;;;;11.85;65.59;100192.72;5594573;31;33711;-83
2022/01/03 09:12:12;;;;;;;;;;;;;;;11.80;66.32;100218.03;5583552;31;33935;-85
2022/01/03 09:15:14;;;;;;;;;;;;;;;11.68;67.71;100228.84;5597506;31;33945;-85
2022/01/03 09:18:26;;;;;;;;;;;;;;;11.65;67.51;100244.22;5599758;31;33604;-82
2022/01/03 09:21:29;;;;;;;;;;;;;;;11.56;67.83;100222.94;5599049;31;34601;-83
2022/01/03 09:24:45;;;;;;;;;;;;;;;11.53;66.33;100231.19;5597885;31;33708;-84
2022/01/03 09:31:27;;;;;;;;;;;;;;;11.34;66.86;100215.41;5596740;31;34358;-81
2022/01/03 09:34:30;;;;;;;;;;;;;;;11.32;66.51;100234.06;5596656;31;34287;-82
2022/01/03 09:37:36;;;;;;;;;;;;;;;11.23;66.99;100229.66;5596959;31;35823;-82
2022/01/03 09:40:40;;;;;;;;;;;;;;;11.32;67.12;100222.66;5596586;31;34745;-82
2022/01/03 09:43:42;;;;;;;;;;;;;;;11.19;67.50;100223.03;5597097;31;34926;-82
2022/01/03 09:46:45;;;;;;;;;;;;;;;11.12;67.25;100228.88;5597035;31;34218;-86
2022/01/03 09:49:49;;;;;;;;;;;;;;;11.01;67.74;100215.84;5598630;31;34024;-82
2022/01/03 09:52:56;;;;;;;;;;;;;;;10.94;68.60;100204.19;5599825;31;34181;-82
2022/01/03 09:56:01;;;;;;;;;;;;;;;10.97;68.57;100193.31;5596570;31;33627;-82
2022/01/03 09:59:10;;;;;;;;;;;;;;;10.95;68.99;100190.78;5596187;31;33496;-82
2022/01/03 10:02:15;;;;;;;;;;;;;;;10.95;69.53;100176.72;5596822;31;34358;-82
2022/01/03 10:05:19;;;;;;;;;;;;;;;10.91;68.67;100188.59;5597409;31;34058;-82
2022/01/03 10:08:21;;;;;;;;;;;;;;;10.80;69.38;100187.78;5595944;31;32291;-82
2022/01/03 10:11:25;;;;;;;;;;;;;;;10.89;68.66;100179.94;5597738;31;33992;-83
2022/01/03 10:14:27;;;;;;;;;;;;;;;10.93;68.92;100178.69;5597403;31;33762;-83
2022/01/03 10:17:38;;;;;;;;;;;;;;;10.91;68.44;100178.00;5598890;31;33389;-81
2022/01/03 10:20:41;;;;;;;;;;;;;;;10.89;69.40;100185.25;5604529;31;34805;-82
2022/01/03 10:23:57;;;;;;;;;;;;;;;10.88;69.08;100188.88;5598336;31;33990;-83
2022/01/03 10:27:01;;;;;;;;;;;;;;;10.85;70.31;100189.19;5597520;31;33436;-84
2022/01/03 10:30:04;;;;;;;;;;;;;;;10.89;69.01;100187.88;5598616;31;33989;-85
2022/01/03 10:33:08;;;;;;;;;;;;;;;10.89;69.12;100178.16;5598964;31;33820;-82
2022/01/03 10:36:31;;;;;;;;;;;;;;;10.89;69.16;100177.31;5599470;31;34417;-83
2022/01/03 10:39:37;;;;;;;;;;;;;;;10.87;69.38;100169.53;5597937;31;33853;-83
2022/01/03 10:42:39;;;;;;;;;;;;;;;10.99;68.74;100146.31;5599687;31;33981;-83
2022/01/03 10:45:45;;;;;;;;;;;;;;;11.03;69.42;100134.47;5598600;31;34103;-82
2022/01/03 10:48:52;;;;;;;;;;;;;;;11.02;69.73;100135.44;5599588;31;34003;-82
2022/01/03 10:52:10;;;;;;;;;;;;;;;10.97;69.59;100132.44;5598408;31;34074;-83
2022/01/03 10:55:17;;;;;;;;;;;;;;;11.02;69.67;100140.75;5598230;31;34425;-83
2022/01/03 10:58:30;;;;;;;;;;;;;;;11.08;69.92;100120.78;5598462;31;34312;-83
2022/01/03 11:01:46;;;;;;;;;;;;;;;11.00;69.91;100118.87;5599238;31;33690;-83
2022/01/03 11:11:06;;;;;;;;;;;;;;;10.80;71.25;100126.94;5597469;31;34300;-84
2022/01/03 11:14:10;;;;;;;;;;;;;;;10.81;72.10;100120.66;5598518;31;34883;-86
2022/01/03 11:17:23;;;;;;;;;;;;;;;10.87;71.77;100124.53;5599779;31;34238;-81
2022/01/03 11:20:27;;;;;;;;;;;;;;;10.86;72.21;100127.34;5601304;31;34102;-82
2022/01/03 11:23:30;;;;;;;;;;;;;;;10.91;71.94;100119.78;5585517;31;33466;-82
2022/01/03 11:26:34;;;;;;;;;;;;;;;10.99;71.62;100111.91;5599378;31;33821;-82
2022/01/03 11:29:38;;;;;;;;;;;;;;;11.02;71.79;100090.44;5598286;31;34862;-81
2022/01/03 11:32:48;;;;;;;;;;;;;;;11.11;71.43;100092.19;5599894;31;34633;-82
2022/01/03 11:35:52;;;;;;;;;;;;;;;11.08;71.73;100097.81;5599439;31;34011;-86
2022/01/03 11:39:00;;;;;;;;;;;;;;;11.18;70.03;100100.38;5597982;31;33931;-85
2022/01/03 11:42:03;;;;;;;;;;;;;;;11.28;69.20;100092.38;5601158;31;33989;-84
2022/01/03 11:45:06;;;;;;;;;;;;;;;11.26;69.24;100095.16;5601070;31;32991;-87
2022/01/03 11:48:10;;;;;;;;;;;;;;;11.40;68.02;100099.09;5597748;31;34299;-85
2022/01/03 11:51:14;;;;;;;;;;;;;;;11.42;68.50;100086.56;5599266;31;34063;-87
2022/01/03 11:54:18;;;;;;;;;;;;;;;11.37;68.43;100078.22;5601743;31;34733;-85
2022/01/03 12:04:17;;;;;;;;;;;;;;;11.17;69.57;100092.59;5600566;31;34378;-84
2022/01/03 12:07:20;;;;;;;;;;;;;;;11.11;69.45;100102.78;5600914;31;34503;-84
2022/01/03 12:10:22;;;;;;;;;;;;;;;10.99;70.30;100095.22;5601103;31;33310;-86
2022/01/03 12:13:46;;;;;;;;;;;;;;;10.99;68.33;100082.78;5600791;31;33942;-85
2022/01/03 12:17:02;;;;;;;;;;;;;;;10.99;67.81;100074.84;5600415;31;34720;-83
2022/01/03 12:20:05;;;;;;;;;;;;;;;11.00;67.14;100089.75;5599439;31;33433;-82
2022/01/03 12:23:09;;;;;;;;;;;;;;;10.97;67.23;100082.97;5599651;31;34558;-85
2022/01/03 12:26:11;;;;;;;;;;;;;;;11.01;66.55;100086.12;5600377;31;33941;-82
2022/01/03 12:29:16;;;;;;;;;;;;;;;10.95;67.01;100097.31;5601006;31;34053;-83
2022/01/03 12:32:29;;;;;;;;;;;;;;;10.89;67.77;100121.72;5599824;31;34562;-83
2022/01/03 12:35:34;;;;;;;;;;;;;;;10.90;67.56;100107.50;5600453;31;33995;-83
2022/01/03 12:38:59;;;;;;;;;;;;;;;10.80;69.05;100136.69;5599760;31;34005;-84
2022/01/03 12:42:02;;;;;;;;;;;;;;;10.80;68.73;100124.28;5601819;31;33549;-86
2022/01/03 12:45:04;;;;;;;;;;;;;;;10.77;69.16;100137.78;5601544;31;34358;-81
2022/01/03 12:48:08;;;;;;;;;;;;;;;10.78;69.46;100136.00;5601312;31;34161;-83
2022/01/03 12:51:15;;;;;;;;;;;;;;;10.79;69.37;100125.25;5604645;31;34890;-85
2022/01/03 12:54:43;;;;;;;;;;;;;;;10.79;69.88;100127.09;5601186;31;34366;-85
2022/01/03 12:57:45;;;;;;;;;;;;;;;10.78;70.14;100128.87;5602173;31;33579;-82
2022/01/03 13:00:58;;;;;;;;;;;;;;;10.79;70.38;100133.19;5598734;31;33988;-86
2022/01/03 13:04:18;;;;;;;;;;;;;;;10.80;70.52;100131.41;5601458;31;34010;-82
2022/01/03 13:07:24;;;;;;;;;;;;;;;10.72;71.35;100137.41;5601972;31;33959;-82
2022/01/03 13:10:26;;;;;;;;;;;;;;;10.69;71.29;100142.19;5601220;31;33836;-83
2022/01/03 13:13:29;;;;;;;;;;;;;;;10.69;71.21;100137.72;5602078;31;33563;-85
2022/01/03 13:16:36;;;;;;;;;;;;;;;10.64;71.28;100146.09;5600704;31;34175;-84
2022/01/03 13:19:40;;;;;;;;;;;;;;;10.61;71.72;100148.19;5601104;31;34690;-86
2022/01/03 13:22:43;;;;;;;;;;;;;;;10.53;72.19;100158.66;5601074;31;34941;-83
2022/01/03 13:25:46;;;;;;;;;;;;;;;10.59;71.54;100147.50;5598386;31;35005;-82
2022/01/03 13:28:52;;;;;;;;;;;;;;;10.51;72.04;100153.50;5602266;31;33887;-82
2022/01/03 13:31:55;;;;;;;;;;;;;;;10.65;71.48;100152.19;5600867;31;35039;-84
2022/01/03 13:35:03;;;;;;;;;;;;;;;10.73;71.32;100140.88;5601408;31;34696;-83
2022/01/03 13:38:16;;;;;;;;;;;;;;;10.62;72.12;100153.31;5600235;31;33644;-82
2022/01/03 13:41:19;;;;;;;;;;;;;;;10.52;72.95;100146.41;5600987;31;33725;-84
2022/01/03 13:44:38;;;;;;;;;;;;;;;10.58;73.03;100156.41;5599358;31;33948;-82
2022/01/03 13:51:20;;;;;;;;;;;;;;;10.50;73.37;100155.34;5560834;31;33890;-82
2022/01/03 13:54:27;;;;;;;;;;;;;;;10.49;73.67;100145.72;5600350;31;33896;-82
2022/01/03 13:57:33;;;;;;;;;;;;;;;10.45;73.81;100157.56;5598810;31;35453;-82
2022/01/03 14:00:42;;;;;;;;;;;;;;;10.38;73.69;100156.47;5598918;31;34069;-82
2022/01/03 14:03:46;;;;;;;;;;;;;;;10.35;73.71;100162.87;5599140;31;33630;-82
2022/01/03 14:07:10;;;;;;;;;;;;;;;10.34;73.10;100158.53;5602554;31;34105;-83
2022/01/03 14:10:15;;;;;;;;;;;;;;;10.32;73.33;100172.87;5598509;31;34282;-83
2022/01/03 14:13:19;;;;;;;;;;;;;;;10.33;72.64;100179.81;5600837;31;33557;-83
2022/01/03 14:17:00;;;;;;;;;;;;;;;10.41;72.00;100164.12;5599437;31;34202;-83
2022/01/03 14:20:06;;;;;;;;;;;;;;;10.47;71.80;100176.75;5600198;31;34018;-84
2022/01/03 14:23:15;;;;;;;;;;;;;;;10.39;72.07;100186.37;5598547;31;33713;-83
2022/01/03 14:26:17;;;;;;;;;;;;;;;10.36;72.07;100195.41;5599202;31;36071;-83
2022/01/03 14:29:39;;;;;;;;;;;;;;;10.31;72.48;100195.00;5599910;31;35015;-83
2022/01/03 14:32:41;;;;;;;;;;;;;;;10.35;72.16;100205.16;5601400;31;33854;-82
2022/01/03 14:35:44;;;;;;;;;;;;;;;10.37;72.49;100191.78;5601415;31;33497;-82
2022/01/03 14:38:47;;;;;;;;;;;;;;;10.33;72.57;100198.34;5603545;31;33677;-82
2022/01/03 14:42:05;;;;;;;;;;;;;;;10.27;73.49;100196.28;5601238;31;34292;-83
2022/01/03 14:45:08;;;;;;;;;;;;;;;10.13;74.15;100195.72;5601531;31;33530;-83
2022/01/03 14:48:17;;;;;;;;;;;;;;;10.23;73.94;100198.38;5601987;31;34157;-82
2022/01/03 14:51:20;;;;;;;;;;;;;;;10.21;74.06;100208.25;5602524;31;33368;-83
2022/01/03 14:54:32;;;;;;;;;;;;;;;10.23;74.73;100201.00;5598959;31;34056;-84
2022/01/03 14:57:55;;;;;;;;;;;;;;;10.15;74.91;100193.78;5599866;31;34143;-82
2022/01/03 15:00:58;;;;;;;;;;;;;;;10.11;74.51;100189.75;5598761;31;34481;-82
2022/01/03 15:04:03;;;;;;;;;;;;;;;10.19;74.65;100199.63;5599873;31;33931;-82
2022/01/03 15:07:07;;;;;;;;;;;;;;;10.22;74.32;100193.22;5599631;31;34829;-82
2022/01/03 15:10:17;;;;;;;;;;;;;;;10.19;74.39;100205.72;5599088;31;34047;-83
2022/01/03 15:13:30;;;;;;;;;;;;;;;10.01;75.18;100205.63;5601277;31;34663;-82
2022/01/03 15:16:33;;;;;;;;;;;;;;;10.05;74.96;100214.94;5597676;31;33831;-84
2022/01/03 15:19:36;;;;;;;;;;;;;;;9.94;75.69;100211.59;5597719;31;33434;-84
2022/01/03 15:22:38;;;;;;;;;;;;;;;9.84;76.17;100216.87;5599834;31;33662;-84
2022/01/03 15:25:41;;;;;;;;;;;;;;;9.73;76.85;100217.88;5601408;31;33519;-84
2022/01/03 15:28:43;;;;;;;;;;;;;;;9.50;77.86;100218.09;5599739;31;33738;-84
2022/01/03 15:31:46;;;;;;;;;;;;;;;9.29;79.13;100212.09;5598745;31;35051;-84
2022/01/03 15:34:49;;;;;;;;;;;;;;;9.38;79.68;100206.00;5600283;31;33855;-84
2022/01/03 15:37:52;;;;;;;;;;;;;;;9.54;78.30;100208.91;5598800;31;34404;-84
2022/01/03 15:40:58;;;;;;;;;;;;;;;9.59;78.03;100208.50;5600964;31;34205;-84
2022/01/03 15:44:02;;;;;;;;;;;;;;;9.48;78.56;100217.41;5597549;31;34312;-84
2022/01/03 15:47:07;;;;;;;;;;;;;;;9.28;79.67;100216.53;5598876;31;34912;-85
2022/01/03 15:50:11;;;;;;;;;;;;;;;9.37;78.98;100206.97;5598763;31;34092;-84
2022/01/03 15:53:14;;;;;;;;;;;;;;;9.25;79.70;100200.94;5598644;31;34813;-84
2022/01/03 15:56:17;;;;;;;;;;;;;;;9.22;79.73;100204.69;5597356;31;33562;-84
2022/01/03 15:59:19;;;;;;;;;;;;;;;9.18;79.96;100200.63;5596658;31;33404;-84
2022/01/03 16:02:22;;;;;;;;;;;;;;;9.07;80.81;100204.25;5598066;31;34110;-84
2022/01/03 16:05:25;;;;;;;;;;;;;;;9.03;81.48;100223.13;5597282;31;33650;-84
2022/01/03 16:08:27;;;;;;;;;;;;;;;9.07;81.16;100219.22;5598336;31;33636;-84
2022/01/03 16:11:35;;;;;;;;;;;;;;;9.08;81.40;100205.06;5597909;31;34005;-84
2022/01/03 16:14:40;;;;;;;;;;;;;;;8.82;82.55;100200.25;5597853;31;34089;-85
2022/01/03 16:17:48;;;;;;;;;;;;;;;8.63;83.83;100204.47;5598779;31;33818;-85